Spalding, Nebraska
Current Conditions -  °F | °C
As of 11:15 AM on Saturday 20 Dec 2014 (Local Time) from KBVN Reporting Station
Moderate Fog Moderate Fog  
Wind Chill: 25°   Ceiling: 100
Heat Index: 31°   Visibility: 0.25mi
Dew Point: 29°   Wind: 6mph
Humidity: 94%   Direction: 190°S
Pressure: 30.05"   Gusts: NA
Location:  41.69°N, 98.36°W
Report Text: KBVN 201715Z AUTO 19005KT 1/4SM FZFG OVC001 M01/M02 A3005 RMK AO2 T10081017
Loading
Personal Weather Stations






























Interactive Weather Map New forecast layout! Learn more

10-Day Weather Forecast

Advertisements
Track Severe Weather on mobile